sensor_id;sensor_type;location;lat;lon;timestamp;pressure;altitude;pressure_sealevel;temperature
57468;BMP280;43311;51.196;7.518;2024-03-25T05:10:03;96035.38;;;3.39
57468;BMP280;43311;51.196;7.518;2024-03-25T05:12:29;96029.47;;;3.42
57468;BMP280;43311;51.196;7.518;2024-03-25T05:14:55;96034.63;;;3.42
57468;BMP280;43311;51.196;7.518;2024-03-25T05:17:21;96033.88;;;3.45
57468;BMP280;43311;51.196;7.518;2024-03-25T05:19:49;96034.25;;;3.47
57468;BMP280;43311;51.196;7.518;2024-03-25T05:22:17;96031.28;;;3.45
57468;BMP280;43311;51.196;7.518;2024-03-25T05:24:44;96033.16;;;3.48
57468;BMP280;43311;51.196;7.518;2024-03-25T05:27:10;96027.25;;;3.44
57468;BMP280;43311;51.196;7.518;2024-03-25T05:29:35;96035.75;;;3.48
57468;BMP280;43311;51.196;7.518;2024-03-25T05:32:01;96030.56;;;3.41
57468;BMP280;43311;51.196;7.518;2024-03-25T05:34:27;96031.66;;;3.44
57468;BMP280;43311;51.196;7.518;2024-03-25T05:36:53;96039.44;;;3.47
57468;BMP280;43311;51.196;7.518;2024-03-25T05:39:20;96033.88;;;3.42
57468;BMP280;43311;51.196;7.518;2024-03-25T05:41:46;96040.53;;;3.39
57468;BMP280;43311;51.196;7.518;2024-03-25T05:44:12;96038.72;;;3.40
57468;BMP280;43311;51.196;7.518;2024-03-25T05:46:40;96032.75;;;3.50
57468;BMP280;43311;51.196;7.518;2024-03-25T05:49:07;96037.94;;;3.53
57468;BMP280;43311;51.196;7.518;2024-03-25T05:51:34;96032.78;;;3.46
57468;BMP280;43311;51.196;7.518;2024-03-25T05:54:05;96041.63;;;3.59
57468;BMP280;43311;51.196;7.518;2024-03-25T05:56:36;96041.41;;;4.29
57468;BMP280;43311;51.196;7.518;2024-03-25T06:10:08;96040.78;;;7.31
57468;BMP280;43311;51.196;7.518;2024-03-25T06:22:06;96052.06;;;5.46
57468;BMP280;43311;51.196;7.518;2024-03-25T06:27:43;96047.13;;;5.55
57468;BMP280;43311;51.196;7.518;2024-03-25T06:30:09;96053.25;;;6.71
57468;BMP280;43311;51.196;7.518;2024-03-25T06:35:54;96039.13;;;9.08
57468;BMP280;43311;51.196;7.518;2024-03-25T07:06:38;96060.06;;;5.25
57468;BMP280;43311;51.196;7.518;2024-03-25T07:09:03;96062.19;;;5.74
57468;BMP280;43311;51.196;7.518;2024-03-25T07:20:31;96075.56;;;6.42
57468;BMP280;43311;51.196;7.518;2024-03-25T07:22:57;96069.25;;;6.43
57468;BMP280;43311;51.196;7.518;2024-03-25T07:25:25;96067.41;;;6.40
57468;BMP280;43311;51.196;7.518;2024-03-25T07:36:26;96073.50;;;6.30
57468;BMP280;43311;51.196;7.518;2024-03-25T07:38:58;96076.25;;;6.46
57468;BMP280;43311;51.196;7.518;2024-03-25T07:41:23;96070.78;;;6.67
57468;BMP280;43311;51.196;7.518;2024-03-25T07:43:48;96067.44;;;6.93
57468;BMP280;43311;51.196;7.518;2024-03-25T08:15:42;96074.59;;;7.35
57468;BMP280;43311;51.196;7.518;2024-03-25T08:18:07;96084.50;;;7.20
57468;BMP280;43311;51.196;7.518;2024-03-25T08:31:21;96088.16;;;7.91
57468;BMP280;43311;51.196;7.518;2024-03-25T08:33:46;96077.47;;;7.86
57468;BMP280;43311;51.196;7.518;2024-03-25T08:36:12;96070.38;;;7.86
57468;BMP280;43311;51.196;7.518;2024-03-25T08:39:15;96076.00;;;7.85
57468;BMP280;43311;51.196;7.518;2024-03-25T08:41:40;96070.91;;;7.97
57468;BMP280;43311;51.196;7.518;2024-03-25T08:44:05;96067.19;;;8.17
57468;BMP280;43311;51.196;7.518;2024-03-25T08:49:12;96064.56;;;8.37
57468;BMP280;43311;51.196;7.518;2024-03-25T08:56:54;96072.00;;;8.58
57468;BMP280;43311;51.196;7.518;2024-03-25T08:59:19;96071.38;;;8.50
57468;BMP280;43311;51.196;7.518;2024-03-25T09:01:44;96066.47;;;8.72
57468;BMP280;43311;51.196;7.518;2024-03-25T09:04:10;96067.25;;;8.33
57468;BMP280;43311;51.196;7.518;2024-03-25T09:28:25;96069.25;;;8.45
57468;BMP280;43311;51.196;7.518;2024-03-25T09:30:51;96072.00;;;8.58
57468;BMP280;43311;51.196;7.518;2024-03-25T09:33:16;96067.09;;;8.76
57468;BMP280;43311;51.196;7.518;2024-03-25T09:38:17;96069.69;;;8.24
57468;BMP280;43311;51.196;7.518;2024-03-25T09:40:42;96064.66;;;8.14
57468;BMP280;43311;51.196;7.518;2024-03-25T09:43:52;96065.59;;;8.23
57468;BMP280;43311;51.196;7.518;2024-03-25T09:45:56;96067.34;;;8.65
57468;BMP280;43311;51.196;7.518;2024-03-25T09:53:40;96058.94;;;8.58
57468;BMP280;43311;51.196;7.518;2024-03-25T09:56:05;96053.75;;;9.05
57468;BMP280;43311;51.196;7.518;2024-03-25T09:58:31;96058.66;;;9.03
57468;BMP280;43311;51.196;7.518;2024-03-25T10:00:57;96057.00;;;9.09
57468;BMP280;43311;51.196;7.518;2024-03-25T10:11:22;96039.88;;;9.24
57468;BMP280;43311;51.196;7.518;2024-03-25T10:13:48;96041.25;;;8.97
57468;BMP280;43311;51.196;7.518;2024-03-25T10:22:00;96031.84;;;9.15
57468;BMP280;43311;51.196;7.518;2024-03-25T10:24:36;96046.25;;;9.07
57468;BMP280;43311;51.196;7.518;2024-03-25T10:55:27;96010.34;;;9.68
57468;BMP280;43311;51.196;7.518;2024-03-25T11:00:44;95999.94;;;9.52
57468;BMP280;43311;51.196;7.518;2024-03-25T11:03:10;96001.66;;;9.43
57468;BMP280;43311;51.196;7.518;2024-03-25T11:05:36;95997.41;;;9.77
57468;BMP280;43311;51.196;7.518;2024-03-25T11:08:14;95998.13;;;10.06
57468;BMP280;43311;51.196;7.518;2024-03-25T11:10:46;95985.59;;;10.38
57468;BMP280;43311;51.196;7.518;2024-03-25T11:13:12;95984.78;;;10.53
57468;BMP280;43311;51.196;7.518;2024-03-25T11:38:26;95967.06;;;10.45
57468;BMP280;43311;51.196;7.518;2024-03-25T11:47:37;95947.31;;;10.78
57468;BMP280;43311;51.196;7.518;2024-03-25T11:53:32;95947.97;;;9.79
57468;BMP280;43311;51.196;7.518;2024-03-25T12:16:57;95907.44;;;10.83
57468;BMP280;43311;51.196;7.518;2024-03-25T12:19:27;95913.44;;;10.83
57468;BMP280;43311;51.196;7.518;2024-03-25T12:21:59;95910.25;;;10.54
57468;BMP280;43311;51.196;7.518;2024-03-25T12:27:56;95892.84;;;10.94
57468;BMP280;43311;51.196;7.518;2024-03-25T12:30:22;95878.00;;;11.34
57468;BMP280;43311;51.196;7.518;2024-03-25T12:39:52;95872.56;;;10.73
57468;BMP280;43311;51.196;7.518;2024-03-25T12:42:17;95876.03;;;11.04
57468;BMP280;43311;51.196;7.518;2024-03-25T12:44:58;95877.38;;;11.30
57468;BMP280;43311;51.196;7.518;2024-03-25T12:47:25;95870.03;;;10.82
57468;BMP280;43311;51.196;7.518;2024-03-25T12:52:45;95859.88;;;10.72
57468;BMP280;43311;51.196;7.518;2024-03-25T12:55:11;95857.59;;;10.61
57468;BMP280;43311;51.196;7.518;2024-03-25T12:57:36;95860.19;;;11.07
57468;BMP280;43311;51.196;7.518;2024-03-25T13:05:28;95853.84;;;11.39
57468;BMP280;43311;51.196;7.518;2024-03-25T13:08:58;95843.34;;;11.17
57468;BMP280;43311;51.196;7.518;2024-03-25T13:11:23;95847.88;;;11.17
57468;BMP280;43311;51.196;7.518;2024-03-25T13:13:49;95838.09;;;11.39
57468;BMP280;43311;51.196;7.518;2024-03-25T13:16:17;95838.13;;;11.60
57468;BMP280;43311;51.196;7.518;2024-03-25T13:22:06;95840.44;;;11.58
57468;BMP280;43311;51.196;7.518;2024-03-25T13:45:23;95810.91;;;10.35
57468;BMP280;43311;51.196;7.518;2024-03-25T13:48:31;95812.81;;;10.22
57468;BMP280;43311;51.196;7.518;2024-03-25T13:54:18;95799.19;;;10.27
57468;BMP280;43311;51.196;7.518;2024-03-25T13:56:50;95789.75;;;10.29
57468;BMP280;43311;51.196;7.518;2024-03-25T14:00:13;95781.22;;;10.50
57468;BMP280;43311;51.196;7.518;2024-03-25T14:11:03;95758.72;;;10.62
57468;BMP280;43311;51.196;7.518;2024-03-25T14:15:56;95749.59;;;10.66
57468;BMP280;43311;51.196;7.518;2024-03-25T14:18:22;95748.66;;;10.60
57468;BMP280;43311;51.196;7.518;2024-03-25T14:20:47;95748.66;;;10.60
57468;BMP280;43311;51.196;7.518;2024-03-25T14:24:06;95741.59;;;10.48
57468;BMP280;43311;51.196;7.518;2024-03-25T14:26:31;95743.47;;;10.48
57468;BMP280;43311;51.196;7.518;2024-03-25T14:28:57;95735.69;;;10.57
57468;BMP280;43311;51.196;7.518;2024-03-25T14:31:49;95729.59;;;10.26
57468;BMP280;43311;51.196;7.518;2024-03-25T14:34:15;95731.81;;;10.27
57468;BMP280;43311;51.196;7.518;2024-03-25T14:36:40;95724.41;;;10.47
57468;BMP280;43311;51.196;7.518;2024-03-25T14:39:08;95716.41;;;10.51
57468;BMP280;43311;51.196;7.518;2024-03-25T14:41:40;95716.75;;;10.40
57468;BMP280;43311;51.196;7.518;2024-03-25T14:44:05;95712.31;;;10.50
57468;BMP280;43311;51.196;7.518;2024-03-25T14:46:31;95713.69;;;10.54
57468;BMP280;43311;51.196;7.518;2024-03-25T14:48:56;95706.09;;;10.35
57468;BMP280;43311;51.196;7.518;2024-03-25T14:51:21;95706.72;;;10.39
57468;BMP280;43311;51.196;7.518;2024-03-25T14:56:29;95700.44;;;10.36
57468;BMP280;43311;51.196;7.518;2024-03-25T14:58:54;95705.91;;;10.29
57468;BMP280;43311;51.196;7.518;2024-03-25T15:11:48;95687.41;;;10.12
57468;BMP280;43311;51.196;7.518;2024-03-25T15:14:13;95684.72;;;10.03
57468;BMP280;43311;51.196;7.518;2024-03-25T15:17:18;95682.66;;;9.98
57468;BMP280;43311;51.196;7.518;2024-03-25T15:19:44;95679.38;;;10.06
57468;BMP280;43311;51.196;7.518;2024-03-25T15:22:24;95681.38;;;9.90
57468;BMP280;43311;51.196;7.518;2024-03-25T15:28:00;95661.56;;;9.89
57468;BMP280;43311;51.196;7.518;2024-03-25T15:37:18;95653.44;;;9.87
57468;BMP280;43311;51.196;7.518;2024-03-25T15:39:52;95656.88;;;9.84
57468;BMP280;43311;51.196;7.518;2024-03-25T15:42:24;95633.94;;;9.54
57468;BMP280;43311;51.196;7.518;2024-03-25T15:47:43;95634.66;;;9.54
57468;BMP280;43311;51.196;7.518;2024-03-25T15:50:09;95625.16;;;9.48
57468;BMP280;43311;51.196;7.518;2024-03-25T15:52:34;95622.22;;;9.46
57468;BMP280;43311;51.196;7.518;2024-03-25T15:54:59;95622.44;;;9.39
57468;BMP280;43311;51.196;7.518;2024-03-25T16:03:50;95614.03;;;9.44
57468;BMP280;43311;51.196;7.518;2024-03-25T16:06:17;95610.91;;;9.49
57468;BMP280;43311;51.196;7.518;2024-03-25T16:08:51;95609.88;;;9.34
57468;BMP280;43311;51.196;7.518;2024-03-25T16:11:17;95610.09;;;9.27
57468;BMP280;43311;51.196;7.518;2024-03-25T16:20:39;95602.38;;;9.11
57468;BMP280;43311;51.196;7.518;2024-03-25T16:26:27;95604.06;;;9.05
57468;BMP280;43311;51.196;7.518;2024-03-25T16:28:52;95606.38;;;9.03
57468;BMP280;43311;51.196;7.518;2024-03-25T16:32:02;95598.63;;;9.00
57468;BMP280;43311;51.196;7.518;2024-03-25T16:37:51;95587.22;;;8.82
57468;BMP280;43311;51.196;7.518;2024-03-25T16:40:18;95591.09;;;8.77
57468;BMP280;43311;51.196;7.518;2024-03-25T16:42:44;95588.38;;;8.81
57468;BMP280;43311;51.196;7.518;2024-03-25T16:45:09;95588.69;;;8.82
57468;BMP280;43311;51.196;7.518;2024-03-25T16:47:53;95583.56;;;8.79
57468;BMP280;43311;51.196;7.518;2024-03-25T16:50:18;95581.03;;;8.76
57468;BMP280;43311;51.196;7.518;2024-03-25T16:56:01;95566.84;;;8.52
57468;BMP280;43311;51.196;7.518;2024-03-25T16:59:30;95567.22;;;8.38
57468;BMP280;43311;51.196;7.518;2024-03-25T17:01:56;95570.88;;;8.40
57468;BMP280;43311;51.196;7.518;2024-03-25T17:04:21;95564.16;;;8.27
57468;BMP280;43311;51.196;7.518;2024-03-25T17:06:46;95561.66;;;8.23
57468;BMP280;43311;51.196;7.518;2024-03-25T17:09:12;95555.25;;;8.12
57468;BMP280;43311;51.196;7.518;2024-03-25T17:11:37;95566.28;;;8.04
57468;BMP280;43311;51.196;7.518;2024-03-25T17:20:59;95558.09;;;7.89
57468;BMP280;43311;51.196;7.518;2024-03-25T17:23:25;95558.50;;;7.88
57468;BMP280;43311;51.196;7.518;2024-03-25T17:25:50;95559.84;;;7.80
57468;BMP280;43311;51.196;7.518;2024-03-25T17:28:16;95551.59;;;7.81
57468;BMP280;43311;51.196;7.518;2024-03-25T17:30:42;95549.75;;;7.66
57468;BMP280;43311;51.196;7.518;2024-03-25T17:33:09;95561.56;;;7.70
57468;BMP280;43311;51.196;7.518;2024-03-25T17:35:35;95553.44;;;7.52
57468;BMP280;43311;51.196;7.518;2024-03-25T17:38:00;95555.75;;;7.35
57468;BMP280;43311;51.196;7.518;2024-03-25T17:40:25;95551.28;;;7.35
57468;BMP280;43311;51.196;7.518;2024-03-25T17:42:51;95552.75;;;7.20
57468;BMP280;43311;51.196;7.518;2024-03-25T17:45:28;95555.22;;;7.11
57468;BMP280;43311;51.196;7.518;2024-03-25T17:48:37;95552.69;;;7.08
57468;BMP280;43311;51.196;7.518;2024-03-25T17:51:02;95545.50;;;6.96
57468;BMP280;43311;51.196;7.518;2024-03-25T17:53:28;95547.47;;;6.92
57468;BMP280;43311;51.196;7.518;2024-03-25T17:55:53;95550.22;;;7.01
57468;BMP280;43311;51.196;7.518;2024-03-25T18:02:06;95545.78;;;6.85
57468;BMP280;43311;51.196;7.518;2024-03-25T18:26:48;95522.47;;;6.27
57468;BMP280;43311;51.196;7.518;2024-03-25T18:33:01;95521.31;;;6.12
57468;BMP280;43311;51.196;7.518;2024-03-25T18:38:55;95515.94;;;5.84
57468;BMP280;43311;51.196;7.518;2024-03-25T18:41:21;95518.78;;;5.90
57468;BMP280;43311;51.196;7.518;2024-03-25T18:43:46;95512.03;;;5.92
57468;BMP280;43311;51.196;7.518;2024-03-25T18:46:24;95510.91;;;5.93
57468;BMP280;43311;51.196;7.518;2024-03-25T18:49:57;95510.78;;;6.00
57468;BMP280;43311;51.196;7.518;2024-03-25T18:52:23;95503.22;;;6.06
57468;BMP280;43311;51.196;7.518;2024-03-25T18:55:04;95503.91;;;5.90
57468;BMP280;43311;51.196;7.518;2024-03-25T18:57:52;95496.78;;;5.94
57468;BMP280;43311;51.196;7.518;2024-03-25T19:00:37;95498.84;;;5.83
57468;BMP280;43311;51.196;7.518;2024-03-25T19:04:06;95499.75;;;5.73
57468;BMP280;43311;51.196;7.518;2024-03-25T19:06:57;95491.28;;;5.69
57468;BMP280;43311;51.196;7.518;2024-03-25T19:09:23;95490.88;;;5.71
57468;BMP280;43311;51.196;7.518;2024-03-25T19:11:48;95490.81;;;5.74
57468;BMP280;43311;51.196;7.518;2024-03-25T19:14:13;95493.28;;;5.62
57468;BMP280;43311;51.196;7.518;2024-03-25T19:16:39;95485.84;;;5.64
57468;BMP280;43311;51.196;7.518;2024-03-25T19:19:04;95484.78;;;5.61
57468;BMP280;43311;51.196;7.518;2024-03-25T19:21:33;95478.75;;;5.64
57468;BMP280;43311;51.196;7.518;2024-03-25T19:23:58;95481.41;;;5.61
57468;BMP280;43311;51.196;7.518;2024-03-25T19:26:34;95485.97;;;5.57
57468;BMP280;43311;51.196;7.518;2024-03-25T19:29:02;95467.41;;;5.55
57468;BMP280;43311;51.196;7.518;2024-03-25T19:31:32;95489.81;;;5.49
57468;BMP280;43311;51.196;7.518;2024-03-25T19:34:06;95472.75;;;5.48
57468;BMP280;43311;51.196;7.518;2024-03-25T19:36:31;95478.34;;;5.46
57468;BMP280;43311;51.196;7.518;2024-03-25T19:39:01;95475.03;;;5.46
57468;BMP280;43311;51.196;7.518;2024-03-25T19:41:35;95475.81;;;5.43
57468;BMP280;43311;51.196;7.518;2024-03-25T19:44:00;95467.69;;;5.41
57468;BMP280;43311;51.196;7.518;2024-03-25T19:46:27;95464.81;;;5.36
57468;BMP280;43311;51.196;7.518;2024-03-25T19:48:52;95464.94;;;5.29
57468;BMP280;43311;51.196;7.518;2024-03-25T19:51:17;95459.94;;;5.18
57468;BMP280;43311;51.196;7.518;2024-03-25T19:53:43;95459.19;;;5.18
57468;BMP280;43311;51.196;7.518;2024-03-25T19:56:08;95462.81;;;5.24
57468;BMP280;43311;51.196;7.518;2024-03-25T19:58:34;95459.38;;;5.30
57468;BMP280;43311;51.196;7.518;2024-03-25T20:01:09;95458.66;;;5.26
57468;BMP280;43311;51.196;7.518;2024-03-25T20:03:35;95460.78;;;5.12
57468;BMP280;43311;51.196;7.518;2024-03-25T20:06:01;95464.59;;;5.07
57468;BMP280;43311;51.196;7.518;2024-03-25T20:08:30;95461.19;;;5.10
57468;BMP280;43311;51.196;7.518;2024-03-25T20:10:59;95458.47;;;5.17
57468;BMP280;43311;51.196;7.518;2024-03-25T20:13:25;95455.41;;;5.22
57468;BMP280;43311;51.196;7.518;2024-03-25T20:15:50;95453.28;;;5.17
57468;BMP280;43311;51.196;7.518;2024-03-25T20:18:16;95454.06;;;5.14
57468;BMP280;43311;51.196;7.518;2024-03-25T20:20:41;95447.78;;;5.12
57468;BMP280;43311;51.196;7.518;2024-03-25T20:23:07;95442.34;;;5.06
57468;BMP280;43311;51.196;7.518;2024-03-25T20:25:32;95440.31;;;4.94
57468;BMP280;43311;51.196;7.518;2024-03-25T20:27:57;95443.97;;;4.97
57468;BMP280;43311;51.196;7.518;2024-03-25T20:30:23;95442.47;;;4.99
57468;BMP280;43311;51.196;7.518;2024-03-25T20:32:48;95441.78;;;4.95
57468;BMP280;43311;51.196;7.518;2024-03-25T20:35:13;95439.59;;;4.94
57468;BMP280;43311;51.196;7.518;2024-03-25T20:37:38;95442.25;;;4.90
57468;BMP280;43311;51.196;7.518;2024-03-25T20:40:04;95440.44;;;4.87
57468;BMP280;43311;51.196;7.518;2024-03-25T20:42:30;95434.16;;;4.85
57468;BMP280;43311;51.196;7.518;2024-03-25T20:44:56;95438.28;;;4.82
57468;BMP280;43311;51.196;7.518;2024-03-25T20:47:21;95440.69;;;4.73
57468;BMP280;43311;51.196;7.518;2024-03-25T20:49:47;95428.38;;;4.77
57468;BMP280;43311;51.196;7.518;2024-03-25T20:52:12;95425.78;;;4.77
57468;BMP280;43311;51.196;7.518;2024-03-25T20:54:37;95423.69;;;4.69
57468;BMP280;43311;51.196;7.518;2024-03-25T20:57:03;95422.16;;;4.72
57468;BMP280;43311;51.196;7.518;2024-03-25T20:59:28;95424.53;;;4.63
57468;BMP280;43311;51.196;7.518;2024-03-25T21:01:54;95419.22;;;4.70
57468;BMP280;43311;51.196;7.518;2024-03-25T21:04:19;95408.84;;;4.70
57468;BMP280;43311;51.196;7.518;2024-03-25T21:06:45;95416.69;;;4.66
57468;BMP280;43311;51.196;7.518;2024-03-25T21:09:11;95411.44;;;4.70
57468;BMP280;43311;51.196;7.518;2024-03-25T21:11:36;95409.03;;;4.59
57468;BMP280;43311;51.196;7.518;2024-03-25T21:14:01;95409.75;;;4.60
57468;BMP280;43311;51.196;7.518;2024-03-25T21:16:26;95408.28;;;4.59
57468;BMP280;43311;51.196;7.518;2024-03-25T21:18:52;95405.41;;;4.53
57468;BMP280;43311;51.196;7.518;2024-03-25T21:21:17;95394.97;;;4.57
57468;BMP280;43311;51.196;7.518;2024-03-25T21:23:46;95399.94;;;4.48
57468;BMP280;43311;51.196;7.518;2024-03-25T21:26:11;95397.34;;;4.48
57468;BMP280;43311;51.196;7.518;2024-03-25T21:28:36;95391.38;;;4.51
57468;BMP280;43311;51.196;7.518;2024-03-25T21:31:02;95392.16;;;4.48
57468;BMP280;43311;51.196;7.518;2024-03-25T21:33:28;95389.09;;;4.53
57468;BMP280;43311;51.196;7.518;2024-03-25T22:36:15;95317.53;;;4.32
57468;BMP280;43311;51.196;7.518;2024-03-25T22:39:30;95318.94;;;4.37
57468;BMP280;43311;51.196;7.518;2024-03-25T22:41:56;95317.41;;;4.39
57468;BMP280;43311;51.196;7.518;2024-03-25T22:44:41;95307.84;;;4.36
57468;BMP280;43311;51.196;7.518;2024-03-25T22:47:08;95311.38;;;4.46
57468;BMP280;43311;51.196;7.518;2024-03-25T22:49:34;95303.53;;;4.49
57468;BMP280;43311;51.196;7.518;2024-03-25T23:03:59;95286.38;;;4.32
57468;BMP280;43311;51.196;7.518;2024-03-25T23:06:24;95285.16;;;4.40
57468;BMP280;43311;51.196;7.518;2024-03-25T23:08:50;95286.75;;;4.34
57468;BMP280;43311;51.196;7.518;2024-03-25T23:11:15;95275.06;;;4.46
57468;BMP280;43311;51.196;7.518;2024-03-25T23:13:40;95279.56;;;4.42
57468;BMP280;43311;51.196;7.518;2024-03-25T23:16:06;95268.88;;;4.40
57468;BMP280;43311;51.196;7.518;2024-03-25T23:18:32;95278.78;;;4.45
57468;BMP280;43311;51.196;7.518;2024-03-25T23:21:01;95278.78;;;4.45
57468;BMP280;43311;51.196;7.518;2024-03-25T23:23:26;95276.66;;;4.40
57468;BMP280;43311;51.196;7.518;2024-03-25T23:26:37;95270.66;;;4.43
57468;BMP280;43311;51.196;7.518;2024-03-25T23:29:03;95271.41;;;4.43
57468;BMP280;43311;51.196;7.518;2024-03-25T23:31:28;95272.91;;;4.41
57468;BMP280;43311;51.196;7.518;2024-03-25T23:40:53;95267.59;;;4.48
57468;BMP280;43311;51.196;7.518;2024-03-25T23:43:22;95263.88;;;4.49
57468;BMP280;43311;51.196;7.518;2024-03-25T23:45:47;95248.44;;;4.42
57468;BMP280;43311;51.196;7.518;2024-03-25T23:48:13;95259.56;;;4.42
57468;BMP280;43311;51.196;7.518;2024-03-25T23:50:47;95255.50;;;4.41
57468;BMP280;43311;51.196;7.518;2024-03-25T23:53:23;95255.09;;;4.43
57468;BMP280;43311;51.196;7.518;2024-03-25T23:55:49;95258.50;;;4.40
57468;BMP280;43311;51.196;7.518;2024-03-25T23:58:14;95248.31;;;4.49
